sensor_id;sensor_type;location;lat;lon;timestamp;P1;durP1;ratioP1;P2;durP2;ratioP2
81242;SDS011;70716;50.074;14.496;2023-07-29T00:02:10;4.05;;;1.60;;
81242;SDS011;70716;50.074;14.496;2023-07-29T00:04:37;3.92;;;1.67;;
81242;SDS011;70716;50.074;14.496;2023-07-29T00:07:02;2.92;;;1.60;;
81242;SDS011;70716;50.074;14.496;2023-07-29T00:09:27;2.75;;;1.40;;
81242;SDS011;70716;50.074;14.496;2023-07-29T00:11:53;3.75;;;1.60;;
81242;SDS011;70716;50.074;14.496;2023-07-29T00:14:18;3.03;;;1.70;;
81242;SDS011;70716;50.074;14.496;2023-07-29T00:16:46;2.97;;;1.60;;
81242;SDS011;70716;50.074;14.496;2023-07-29T00:19:12;3.30;;;1.50;;
81242;SDS011;70716;50.074;14.496;2023-07-29T00:21:37;4.53;;;1.52;;
81242;SDS011;70716;50.074;14.496;2023-07-29T00:24:03;2.60;;;1.33;;
81242;SDS011;70716;50.074;14.496;2023-07-29T00:26:29;2.80;;;1.30;;
81242;SDS011;70716;50.074;14.496;2023-07-29T00:28:57;2.85;;;1.52;;
81242;SDS011;70716;50.074;14.496;2023-07-29T00:31:27;2.85;;;1.42;;
81242;SDS011;70716;50.074;14.496;2023-07-29T00:33:53;3.10;;;1.50;;
81242;SDS011;70716;50.074;14.496;2023-07-29T00:36:18;3.05;;;1.42;;
81242;SDS011;70716;50.074;14.496;2023-07-29T00:38:43;2.92;;;1.27;;
81242;SDS011;70716;50.074;14.496;2023-07-29T00:41:09;3.97;;;1.60;;
81242;SDS011;70716;50.074;14.496;2023-07-29T00:43:38;3.22;;;1.77;;
81242;SDS011;70716;50.074;14.496;2023-07-29T00:46:03;3.65;;;1.60;;
81242;SDS011;70716;50.074;14.496;2023-07-29T00:48:29;3.05;;;1.40;;
81242;SDS011;70716;50.074;14.496;2023-07-29T00:50:55;3.53;;;1.50;;
81242;SDS011;70716;50.074;14.496;2023-07-29T00:53:20;3.80;;;1.52;;
81242;SDS011;70716;50.074;14.496;2023-07-29T00:55:48;3.97;;;1.75;;
81242;SDS011;70716;50.074;14.496;2023-07-29T00:58:14;3.55;;;1.60;;
81242;SDS011;70716;50.074;14.496;2023-07-29T01:00:43;2.67;;;1.40;;
81242;SDS011;70716;50.074;14.496;2023-07-29T01:03:08;3.40;;;1.50;;
81242;SDS011;70716;50.074;14.496;2023-07-29T01:05:40;3.35;;;1.40;;
81242;SDS011;70716;50.074;14.496;2023-07-29T01:08:27;3.88;;;1.50;;
81242;SDS011;70716;50.074;14.496;2023-07-29T01:11:10;2.75;;;1.45;;
81242;SDS011;70716;50.074;14.496;2023-07-29T01:13:48;2.83;;;1.58;;
81242;SDS011;70716;50.074;14.496;2023-07-29T01:16:41;4.10;;;1.63;;
81242;SDS011;70716;50.074;14.496;2023-07-29T01:19:07;3.05;;;1.60;;
81242;SDS011;70716;50.074;14.496;2023-07-29T01:21:45;2.97;;;1.50;;
81242;SDS011;70716;50.074;14.496;2023-07-29T01:24:12;3.10;;;1.50;;
81242;SDS011;70716;50.074;14.496;2023-07-29T01:26:37;3.47;;;1.60;;
81242;SDS011;70716;50.074;14.496;2023-07-29T01:29:03;3.85;;;1.70;;
81242;SDS011;70716;50.074;14.496;2023-07-29T01:31:36;3.42;;;1.63;;
81242;SDS011;70716;50.074;14.496;2023-07-29T01:34:17;3.95;;;1.48;;
81242;SDS011;70716;50.074;14.496;2023-07-29T01:36:50;3.53;;;1.70;;
81242;SDS011;70716;50.074;14.496;2023-07-29T01:39:19;4.18;;;1.45;;
81242;SDS011;70716;50.074;14.496;2023-07-29T01:41:50;4.03;;;1.60;;
81242;SDS011;70716;50.074;14.496;2023-07-29T01:44:16;4.63;;;1.75;;
81242;SDS011;70716;50.074;14.496;2023-07-29T01:46:44;3.00;;;1.40;;
81242;SDS011;70716;50.074;14.496;2023-07-29T01:49:09;3.22;;;1.65;;
81242;SDS011;70716;50.074;14.496;2023-07-29T01:51:35;4.18;;;1.52;;
81242;SDS011;70716;50.074;14.496;2023-07-29T01:54:02;3.30;;;1.50;;
81242;SDS011;70716;50.074;14.496;2023-07-29T01:56:27;3.55;;;1.67;;
81242;SDS011;70716;50.074;14.496;2023-07-29T01:58:53;3.20;;;1.50;;
81242;SDS011;70716;50.074;14.496;2023-07-29T02:01:18;2.83;;;1.45;;
81242;SDS011;70716;50.074;14.496;2023-07-29T02:03:43;3.60;;;1.65;;
81242;SDS011;70716;50.074;14.496;2023-07-29T02:06:09;4.43;;;1.70;;
81242;SDS011;70716;50.074;14.496;2023-07-29T02:08:34;3.25;;;1.70;;
81242;SDS011;70716;50.074;14.496;2023-07-29T02:11:00;3.75;;;1.65;;
81242;SDS011;70716;50.074;14.496;2023-07-29T02:13:25;3.70;;;1.70;;
81242;SDS011;70716;50.074;14.496;2023-07-29T02:15:50;4.45;;;1.73;;
81242;SDS011;70716;50.074;14.496;2023-07-29T02:18:16;3.85;;;1.92;;
81242;SDS011;70716;50.074;14.496;2023-07-29T02:20:42;4.20;;;1.90;;
81242;SDS011;70716;50.074;14.496;2023-07-29T02:23:14;3.10;;;1.70;;
81242;SDS011;70716;50.074;14.496;2023-07-29T02:25:39;3.53;;;1.75;;
81242;SDS011;70716;50.074;14.496;2023-07-29T02:28:05;4.72;;;1.90;;
81242;SDS011;70716;50.074;14.496;2023-07-29T02:30:30;4.80;;;1.83;;
81242;SDS011;70716;50.074;14.496;2023-07-29T02:32:56;3.95;;;1.60;;
81242;SDS011;70716;50.074;14.496;2023-07-29T02:35:22;3.28;;;1.63;;
81242;SDS011;70716;50.074;14.496;2023-07-29T02:37:51;3.90;;;1.40;;
81242;SDS011;70716;50.074;14.496;2023-07-29T02:40:17;4.38;;;1.48;;
81242;SDS011;70716;50.074;14.496;2023-07-29T02:42:42;3.25;;;1.63;;
81242;SDS011;70716;50.074;14.496;2023-07-29T02:45:08;3.75;;;1.60;;
81242;SDS011;70716;50.074;14.496;2023-07-29T02:47:38;3.80;;;1.63;;
81242;SDS011;70716;50.074;14.496;2023-07-29T02:50:03;2.97;;;1.58;;
81242;SDS011;70716;50.074;14.496;2023-07-29T02:52:30;3.05;;;1.33;;
81242;SDS011;70716;50.074;14.496;2023-07-29T02:54:56;3.13;;;1.42;;
81242;SDS011;70716;50.074;14.496;2023-07-29T02:57:21;4.10;;;1.95;;
81242;SDS011;70716;50.074;14.496;2023-07-29T02:59:46;3.30;;;1.50;;
81242;SDS011;70716;50.074;14.496;2023-07-29T03:02:15;4.22;;;1.40;;
81242;SDS011;70716;50.074;14.496;2023-07-29T03:04:41;3.03;;;1.40;;
81242;SDS011;70716;50.074;14.496;2023-07-29T03:07:06;2.72;;;1.38;;
81242;SDS011;70716;50.074;14.496;2023-07-29T03:09:32;3.03;;;1.27;;
81242;SDS011;70716;50.074;14.496;2023-07-29T03:11:58;3.67;;;1.40;;
81242;SDS011;70716;50.074;14.496;2023-07-29T03:14:24;3.28;;;1.42;;
81242;SDS011;70716;50.074;14.496;2023-07-29T03:16:49;3.30;;;1.48;;
81242;SDS011;70716;50.074;14.496;2023-07-29T03:19:15;2.45;;;1.40;;
81242;SDS011;70716;50.074;14.496;2023-07-29T03:21:40;4.55;;;1.67;;
81242;SDS011;70716;50.074;14.496;2023-07-29T03:24:05;4.13;;;1.60;;
81242;SDS011;70716;50.074;14.496;2023-07-29T03:26:34;3.55;;;2.03;;
81242;SDS011;70716;50.074;14.496;2023-07-29T03:29:00;3.40;;;1.60;;
81242;SDS011;70716;50.074;14.496;2023-07-29T03:31:28;3.50;;;1.77;;
81242;SDS011;70716;50.074;14.496;2023-07-29T03:33:54;4.07;;;1.60;;
81242;SDS011;70716;50.074;14.496;2023-07-29T03:36:20;4.43;;;2.28;;
81242;SDS011;70716;50.074;14.496;2023-07-29T03:38:46;3.67;;;1.60;;
81242;SDS011;70716;50.074;14.496;2023-07-29T03:41:11;3.20;;;1.45;;
81242;SDS011;70716;50.074;14.496;2023-07-29T03:43:37;2.53;;;1.30;;
81242;SDS011;70716;50.074;14.496;2023-07-29T03:46:02;3.15;;;1.30;;
81242;SDS011;70716;50.074;14.496;2023-07-29T03:48:27;2.40;;;1.25;;
81242;SDS011;70716;50.074;14.496;2023-07-29T03:50:53;3.10;;;1.40;;
81242;SDS011;70716;50.074;14.496;2023-07-29T03:53:19;2.63;;;1.30;;
81242;SDS011;70716;50.074;14.496;2023-07-29T03:55:44;3.50;;;1.73;;
81242;SDS011;70716;50.074;14.496;2023-07-29T03:58:11;2.67;;;0.93;;
81242;SDS011;70716;50.074;14.496;2023-07-29T04:00:40;2.78;;;1.33;;
81242;SDS011;70716;50.074;14.496;2023-07-29T04:03:06;3.28;;;1.40;;
81242;SDS011;70716;50.074;14.496;2023-07-29T04:05:31;3.15;;;1.30;;
81242;SDS011;70716;50.074;14.496;2023-07-29T04:07:57;2.90;;;1.20;;
81242;SDS011;70716;50.074;14.496;2023-07-29T04:10:22;3.13;;;1.23;;
81242;SDS011;70716;50.074;14.496;2023-07-29T04:12:47;1.88;;;1.00;;
81242;SDS011;70716;50.074;14.496;2023-07-29T04:15:13;3.20;;;1.50;;
81242;SDS011;70716;50.074;14.496;2023-07-29T04:17:41;3.33;;;1.30;;
81242;SDS011;70716;50.074;14.496;2023-07-29T04:20:07;2.58;;;1.23;;
81242;SDS011;70716;50.074;14.496;2023-07-29T04:22:32;2.53;;;1.08;;
81242;SDS011;70716;50.074;14.496;2023-07-29T04:24:58;2.42;;;1.20;;
81242;SDS011;70716;50.074;14.496;2023-07-29T04:27:26;2.00;;;1.23;;
81242;SDS011;70716;50.074;14.496;2023-07-29T04:29:52;2.67;;;1.30;;
81242;SDS011;70716;50.074;14.496;2023-07-29T04:32:18;3.90;;;1.35;;
81242;SDS011;70716;50.074;14.496;2023-07-29T04:34:43;2.58;;;1.20;;
81242;SDS011;70716;50.074;14.496;2023-07-29T04:37:08;2.38;;;1.17;;
81242;SDS011;70716;50.074;14.496;2023-07-29T04:39:34;2.25;;;1.20;;
81242;SDS011;70716;50.074;14.496;2023-07-29T04:42:00;2.08;;;1.15;;
81242;SDS011;70716;50.074;14.496;2023-07-29T04:44:26;2.95;;;1.50;;
81242;SDS011;70716;50.074;14.496;2023-07-29T04:46:52;3.88;;;1.42;;
81242;SDS011;70716;50.074;14.496;2023-07-29T04:49:19;2.60;;;1.10;;
81242;SDS011;70716;50.074;14.496;2023-07-29T04:51:47;2.80;;;1.23;;
81242;SDS011;70716;50.074;14.496;2023-07-29T04:54:15;2.20;;;1.15;;
81242;SDS011;70716;50.074;14.496;2023-07-29T04:56:42;1.92;;;1.17;;
81242;SDS011;70716;50.074;14.496;2023-07-29T04:59:08;2.25;;;1.10;;
81242;SDS011;70716;50.074;14.496;2023-07-29T05:01:33;3.17;;;1.10;;
81242;SDS011;70716;50.074;14.496;2023-07-29T05:03:59;2.42;;;1.23;;
81242;SDS011;70716;50.074;14.496;2023-07-29T05:06:24;3.72;;;1.33;;
81242;SDS011;70716;50.074;14.496;2023-07-29T05:08:49;2.40;;;1.15;;
81242;SDS011;70716;50.074;14.496;2023-07-29T05:11:15;2.22;;;1.05;;
81242;SDS011;70716;50.074;14.496;2023-07-29T05:13:40;3.28;;;1.20;;
81242;SDS011;70716;50.074;14.496;2023-07-29T05:16:05;3.75;;;1.30;;
81242;SDS011;70716;50.074;14.496;2023-07-29T05:18:31;3.35;;;1.20;;
81242;SDS011;70716;50.074;14.496;2023-07-29T05:20:56;2.30;;;1.10;;
81242;SDS011;70716;50.074;14.496;2023-07-29T05:23:21;3.10;;;1.52;;
81242;SDS011;70716;50.074;14.496;2023-07-29T05:25:47;3.17;;;1.10;;
81242;SDS011;70716;50.074;14.496;2023-07-29T05:28:12;3.05;;;1.30;;
81242;SDS011;70716;50.074;14.496;2023-07-29T05:30:38;2.88;;;1.35;;
81242;SDS011;70716;50.074;14.496;2023-07-29T05:33:06;2.53;;;1.10;;
81242;SDS011;70716;50.074;14.496;2023-07-29T05:35:34;2.55;;;1.08;;
81242;SDS011;70716;50.074;14.496;2023-07-29T05:38:00;3.97;;;1.40;;
81242;SDS011;70716;50.074;14.496;2023-07-29T05:40:28;2.92;;;1.40;;
81242;SDS011;70716;50.074;14.496;2023-07-29T05:42:53;3.33;;;1.27;;
81242;SDS011;70716;50.074;14.496;2023-07-29T05:45:19;2.88;;;1.20;;
81242;SDS011;70716;50.074;14.496;2023-07-29T05:47:44;2.08;;;1.20;;
81242;SDS011;70716;50.074;14.496;2023-07-29T05:50:09;3.92;;;1.30;;
81242;SDS011;70716;50.074;14.496;2023-07-29T05:52:35;2.60;;;1.15;;
81242;SDS011;70716;50.074;14.496;2023-07-29T05:55:00;3.33;;;1.42;;
81242;SDS011;70716;50.074;14.496;2023-07-29T05:57:29;3.45;;;1.40;;
81242;SDS011;70716;50.074;14.496;2023-07-29T05:59:54;3.33;;;1.40;;
81242;SDS011;70716;50.074;14.496;2023-07-29T06:02:19;4.80;;;1.30;;
81242;SDS011;70716;50.074;14.496;2023-07-29T06:04:45;2.42;;;1.30;;
81242;SDS011;70716;50.074;14.496;2023-07-29T06:07:10;4.35;;;1.40;;
81242;SDS011;70716;50.074;14.496;2023-07-29T06:09:36;3.53;;;1.30;;
81242;SDS011;70716;50.074;14.496;2023-07-29T06:12:01;3.42;;;1.45;;
81242;SDS011;70716;50.074;14.496;2023-07-29T06:14:26;2.67;;;1.27;;
81242;SDS011;70716;50.074;14.496;2023-07-29T06:16:52;3.15;;;1.30;;
81242;SDS011;70716;50.074;14.496;2023-07-29T06:19:18;3.25;;;1.40;;
81242;SDS011;70716;50.074;14.496;2023-07-29T06:21:46;2.45;;;1.40;;
81242;SDS011;70716;50.074;14.496;2023-07-29T06:24:11;2.25;;;1.52;;
81242;SDS011;70716;50.074;14.496;2023-07-29T06:26:37;2.65;;;1.40;;
81242;SDS011;70716;50.074;14.496;2023-07-29T06:29:03;2.95;;;1.40;;
81242;SDS011;70716;50.074;14.496;2023-07-29T06:31:28;3.38;;;1.55;;
81242;SDS011;70716;50.074;14.496;2023-07-29T06:33:54;3.10;;;1.40;;
81242;SDS011;70716;50.074;14.496;2023-07-29T06:36:20;3.53;;;1.52;;
81242;SDS011;70716;50.074;14.496;2023-07-29T06:38:45;3.00;;;1.40;;
81242;SDS011;70716;50.074;14.496;2023-07-29T06:41:11;2.95;;;1.25;;
81242;SDS011;70716;50.074;14.496;2023-07-29T06:43:36;2.83;;;1.40;;
81242;SDS011;70716;50.074;14.496;2023-07-29T06:46:01;4.15;;;1.30;;
81242;SDS011;70716;50.074;14.496;2023-07-29T06:48:27;2.75;;;1.20;;
81242;SDS011;70716;50.074;14.496;2023-07-29T06:50:52;3.45;;;1.40;;
81242;SDS011;70716;50.074;14.496;2023-07-29T06:53:18;3.03;;;1.55;;
81242;SDS011;70716;50.074;14.496;2023-07-29T06:58:09;3.13;;;1.37;;
81242;SDS011;70716;50.074;14.496;2023-07-29T07:00:35;2.88;;;1.40;;
81242;SDS011;70716;50.074;14.496;2023-07-29T07:03:03;2.65;;;1.35;;
81242;SDS011;70716;50.074;14.496;2023-07-29T07:05:29;2.97;;;1.50;;
81242;SDS011;70716;50.074;14.496;2023-07-29T07:07:54;2.97;;;1.50;;
81242;SDS011;70716;50.074;14.496;2023-07-29T07:10:20;2.95;;;1.50;;
81242;SDS011;70716;50.074;14.496;2023-07-29T07:12:45;3.08;;;1.42;;
81242;SDS011;70716;50.074;14.496;2023-07-29T07:15:10;4.88;;;1.60;;
81242;SDS011;70716;50.074;14.496;2023-07-29T07:17:36;3.88;;;1.40;;
81242;SDS011;70716;50.074;14.496;2023-07-29T07:20:01;3.80;;;1.45;;
81242;SDS011;70716;50.074;14.496;2023-07-29T07:22:27;3.22;;;1.35;;
81242;SDS011;70716;50.074;14.496;2023-07-29T07:24:52;3.38;;;1.40;;
81242;SDS011;70716;50.074;14.496;2023-07-29T07:27:18;3.55;;;1.40;;
81242;SDS011;70716;50.074;14.496;2023-07-29T07:29:43;4.28;;;1.60;;
81242;SDS011;70716;50.074;14.496;2023-07-29T07:32:08;3.38;;;1.55;;
81242;SDS011;70716;50.074;14.496;2023-07-29T07:34:34;6.20;;;1.60;;
81242;SDS011;70716;50.074;14.496;2023-07-29T07:37:00;3.33;;;1.40;;
81242;SDS011;70716;50.074;14.496;2023-07-29T07:39:25;3.08;;;1.38;;
81242;SDS011;70716;50.074;14.496;2023-07-29T07:41:51;2.35;;;1.23;;
81242;SDS011;70716;50.074;14.496;2023-07-29T07:44:16;3.15;;;1.52;;
81242;SDS011;70716;50.074;14.496;2023-07-29T07:46:43;3.60;;;1.35;;
81242;SDS011;70716;50.074;14.496;2023-07-29T07:49:09;3.30;;;1.30;;
81242;SDS011;70716;50.074;14.496;2023-07-29T07:51:34;3.40;;;1.52;;
81242;SDS011;70716;50.074;14.496;2023-07-29T07:54:00;2.92;;;1.35;;
81242;SDS011;70716;50.074;14.496;2023-07-29T07:56:25;2.85;;;1.45;;
81242;SDS011;70716;50.074;14.496;2023-07-29T07:58:50;2.38;;;1.48;;
81242;SDS011;70716;50.074;14.496;2023-07-29T08:01:16;3.80;;;1.60;;
81242;SDS011;70716;50.074;14.496;2023-07-29T08:03:41;4.13;;;1.45;;
81242;SDS011;70716;50.074;14.496;2023-07-29T08:06:07;5.07;;;1.48;;
81242;SDS011;70716;50.074;14.496;2023-07-29T08:08:32;4.03;;;1.50;;
81242;SDS011;70716;50.074;14.496;2023-07-29T08:10:57;3.15;;;1.10;;
81242;SDS011;70716;50.074;14.496;2023-07-29T08:13:23;3.40;;;1.50;;
81242;SDS011;70716;50.074;14.496;2023-07-29T08:15:50;3.30;;;1.50;;
81242;SDS011;70716;50.074;14.496;2023-07-29T08:18:17;2.13;;;1.23;;
81242;SDS011;70716;50.074;14.496;2023-07-29T08:20:56;2.55;;;1.40;;
81242;SDS011;70716;50.074;14.496;2023-07-29T08:23:29;1.67;;;1.05;;
81242;SDS011;70716;50.074;14.496;2023-07-29T08:26:00;1.95;;;1.10;;
81242;SDS011;70716;50.074;14.496;2023-07-29T08:28:27;2.63;;;1.20;;
81242;SDS011;70716;50.074;14.496;2023-07-29T08:30:53;2.70;;;1.20;;
81242;SDS011;70716;50.074;14.496;2023-07-29T08:33:19;3.08;;;1.35;;
81242;SDS011;70716;50.074;14.496;2023-07-29T08:35:45;2.47;;;1.20;;
81242;SDS011;70716;50.074;14.496;2023-07-29T08:38:10;3.00;;;1.30;;
81242;SDS011;70716;50.074;14.496;2023-07-29T08:40:36;3.15;;;1.30;;
81242;SDS011;70716;50.074;14.496;2023-07-29T08:43:06;3.45;;;1.13;;
81242;SDS011;70716;50.074;14.496;2023-07-29T08:45:34;2.55;;;1.10;;
81242;SDS011;70716;50.074;14.496;2023-07-29T08:48:07;2.00;;;1.25;;
81242;SDS011;70716;50.074;14.496;2023-07-29T08:50:35;2.90;;;1.20;;
81242;SDS011;70716;50.074;14.496;2023-07-29T08:53:03;2.38;;;1.10;;
81242;SDS011;70716;50.074;14.496;2023-07-29T08:55:30;2.75;;;1.20;;
81242;SDS011;70716;50.074;14.496;2023-07-29T08:57:56;2.75;;;1.45;;
81242;SDS011;70716;50.074;14.496;2023-07-29T09:00:23;2.05;;;1.15;;
81242;SDS011;70716;50.074;14.496;2023-07-29T09:02:50;1.58;;;1.10;;
81242;SDS011;70716;50.074;14.496;2023-07-29T09:05:18;2.15;;;1.20;;
81242;SDS011;70716;50.074;14.496;2023-07-29T09:07:45;2.65;;;1.33;;
81242;SDS011;70716;50.074;14.496;2023-07-29T09:10:13;3.05;;;1.40;;
81242;SDS011;70716;50.074;14.496;2023-07-29T09:15:04;3.20;;;1.30;;
81242;SDS011;70716;50.074;14.496;2023-07-29T09:17:33;2.40;;;1.50;;
81242;SDS011;70716;50.074;14.496;2023-07-29T09:19:59;1.73;;;1.02;;
81242;SDS011;70716;50.074;14.496;2023-07-29T09:22:26;1.83;;;1.15;;
81242;SDS011;70716;50.074;14.496;2023-07-29T09:24:52;3.53;;;1.38;;
81242;SDS011;70716;50.074;14.496;2023-07-29T09:27:28;3.92;;;1.60;;
81242;SDS011;70716;50.074;14.496;2023-07-29T09:29:56;2.47;;;1.30;;
81242;SDS011;70716;50.074;14.496;2023-07-29T09:32:25;2.28;;;1.30;;
81242;SDS011;70716;50.074;14.496;2023-07-29T09:34:51;2.60;;;1.45;;
81242;SDS011;70716;50.074;14.496;2023-07-29T09:37:25;3.03;;;1.45;;
81242;SDS011;70716;50.074;14.496;2023-07-29T09:39:51;3.25;;;1.20;;
81242;SDS011;70716;50.074;14.496;2023-07-29T09:42:20;2.50;;;1.30;;
81242;SDS011;70716;50.074;14.496;2023-07-29T09:44:50;3.15;;;1.52;;
81242;SDS011;70716;50.074;14.496;2023-07-29T09:47:20;2.25;;;1.30;;
81242;SDS011;70716;50.074;14.496;2023-07-29T09:49:47;2.17;;;1.40;;
81242;SDS011;70716;50.074;14.496;2023-07-29T09:52:16;2.05;;;1.17;;
81242;SDS011;70716;50.074;14.496;2023-07-29T09:54:47;2.60;;;1.35;;
81242;SDS011;70716;50.074;14.496;2023-07-29T09:57:13;1.42;;;1.05;;
81242;SDS011;70716;50.074;14.496;2023-07-29T09:59:40;2.78;;;1.27;;
81242;SDS011;70716;50.074;14.496;2023-07-29T10:02:10;1.85;;;1.27;;
81242;SDS011;70716;50.074;14.496;2023-07-29T10:04:49;2.35;;;1.10;;
81242;SDS011;70716;50.074;14.496;2023-07-29T10:07:15;2.90;;;1.20;;
81242;SDS011;70716;50.074;14.496;2023-07-29T10:09:41;1.75;;;1.02;;
81242;SDS011;70716;50.074;14.496;2023-07-29T10:12:07;2.78;;;1.20;;
81242;SDS011;70716;50.074;14.496;2023-07-29T10:14:34;2.00;;;1.05;;
81242;SDS011;70716;50.074;14.496;2023-07-29T10:17:00;2.40;;;1.20;;
81242;SDS011;70716;50.074;14.496;2023-07-29T10:19:26;1.98;;;1.15;;
81242;SDS011;70716;50.074;14.496;2023-07-29T10:21:52;2.03;;;1.10;;
81242;SDS011;70716;50.074;14.496;2023-07-29T10:24:22;1.95;;;1.23;;
81242;SDS011;70716;50.074;14.496;2023-07-29T10:26:57;1.48;;;1.00;;
81242;SDS011;70716;50.074;14.496;2023-07-29T10:29:24;1.30;;;1.00;;
81242;SDS011;70716;50.074;14.496;2023-07-29T10:31:53;2.83;;;1.10;;
81242;SDS011;70716;50.074;14.496;2023-07-29T10:34:22;3.70;;;1.00;;
81242;SDS011;70716;50.074;14.496;2023-07-29T10:36:49;2.15;;;1.20;;
81242;SDS011;70716;50.074;14.496;2023-07-29T10:39:15;1.70;;;1.10;;
81242;SDS011;70716;50.074;14.496;2023-07-29T10:47:13;2.72;;;1.27;;
81242;SDS011;70716;50.074;14.496;2023-07-29T10:49:40;3.50;;;1.20;;
81242;SDS011;70716;50.074;14.496;2023-07-29T10:52:07;2.53;;;1.00;;
81242;SDS011;70716;50.074;14.496;2023-07-29T10:54:42;2.58;;;1.23;;
81242;SDS011;70716;50.074;14.496;2023-07-29T10:57:08;1.60;;;1.10;;
81242;SDS011;70716;50.074;14.496;2023-07-29T10:59:38;2.35;;;1.20;;
81242;SDS011;70716;50.074;14.496;2023-07-29T11:02:06;2.28;;;1.10;;
81242;SDS011;70716;50.074;14.496;2023-07-29T11:04:46;2.17;;;1.20;;
81242;SDS011;70716;50.074;14.496;2023-07-29T11:15:24;2.63;;;1.20;;
81242;SDS011;70716;50.074;14.496;2023-07-29T11:20:17;3.72;;;1.60;;
81242;SDS011;70716;50.074;14.496;2023-07-29T11:22:48;4.72;;;1.52;;
81242;SDS011;70716;50.074;14.496;2023-07-29T11:25:15;6.13;;;1.40;;
81242;SDS011;70716;50.074;14.496;2023-07-29T11:27:42;3.40;;;1.13;;
81242;SDS011;70716;50.074;14.496;2023-07-29T11:30:09;5.13;;;1.25;;
81242;SDS011;70716;50.074;14.496;2023-07-29T11:32:35;4.57;;;1.40;;
81242;SDS011;70716;50.074;14.496;2023-07-29T11:35:05;2.92;;;1.08;;
81242;SDS011;70716;50.074;14.496;2023-07-29T11:37:39;3.40;;;1.30;;
81242;SDS011;70716;50.074;14.496;2023-07-29T11:40:05;4.43;;;1.10;;
81242;SDS011;70716;50.074;14.496;2023-07-29T11:42:32;4.55;;;1.08;;
81242;SDS011;70716;50.074;14.496;2023-07-29T11:45:01;3.90;;;1.10;;
81242;SDS011;70716;50.074;14.496;2023-07-29T11:47:28;5.20;;;1.27;;
81242;SDS011;70716;50.074;14.496;2023-07-29T11:49:57;5.57;;;1.52;;
81242;SDS011;70716;50.074;14.496;2023-07-29T11:52:24;3.28;;;1.00;;
81242;SDS011;70716;50.074;14.496;2023-07-29T11:54:49;3.15;;;1.10;;
81242;SDS011;70716;50.074;14.496;2023-07-29T11:57:16;3.47;;;1.15;;
81242;SDS011;70716;50.074;14.496;2023-07-29T11:59:43;4.28;;;1.60;;
81242;SDS011;70716;50.074;14.496;2023-07-29T12:02:13;4.43;;;1.40;;
81242;SDS011;70716;50.074;14.496;2023-07-29T12:04:41;3.33;;;1.25;;
81242;SDS011;70716;50.074;14.496;2023-07-29T12:09:34;4.20;;;1.42;;
81242;SDS011;70716;50.074;14.496;2023-07-29T12:12:00;2.35;;;1.10;;
81242;SDS011;70716;50.074;14.496;2023-07-29T12:16:55;2.60;;;1.02;;
81242;SDS011;70716;50.074;14.496;2023-07-29T12:19:21;2.92;;;1.30;;
81242;SDS011;70716;50.074;14.496;2023-07-29T12:21:50;3.05;;;1.17;;
81242;SDS011;70716;50.074;14.496;2023-07-29T12:24:15;2.63;;;1.00;;
81242;SDS011;70716;50.074;14.496;2023-07-29T12:26:41;2.95;;;0.95;;
81242;SDS011;70716;50.074;14.496;2023-07-29T12:29:14;2.58;;;1.13;;
81242;SDS011;70716;50.074;14.496;2023-07-29T12:36:41;3.00;;;1.10;;
81242;SDS011;70716;50.074;14.496;2023-07-29T12:41:52;2.72;;;1.15;;
81242;SDS011;70716;50.074;14.496;2023-07-29T12:44:31;2.28;;;1.17;;
81242;SDS011;70716;50.074;14.496;2023-07-29T12:46:59;4.03;;;1.20;;
81242;SDS011;70716;50.074;14.496;2023-07-29T12:49:28;2.15;;;0.90;;
81242;SDS011;70716;50.074;14.496;2023-07-29T12:51:55;3.50;;;1.02;;
81242;SDS011;70716;50.074;14.496;2023-07-29T12:54:21;4.32;;;1.15;;
81242;SDS011;70716;50.074;14.496;2023-07-29T12:56:49;4.03;;;1.10;;
81242;SDS011;70716;50.074;14.496;2023-07-29T12:59:15;2.60;;;1.23;;
81242;SDS011;70716;50.074;14.496;2023-07-29T13:01:40;3.95;;;1.30;;
81242;SDS011;70716;50.074;14.496;2023-07-29T13:04:06;2.67;;;0.95;;
81242;SDS011;70716;50.074;14.496;2023-07-29T13:06:31;3.63;;;1.00;;
81242;SDS011;70716;50.074;14.496;2023-07-29T13:08:57;3.40;;;1.10;;
81242;SDS011;70716;50.074;14.496;2023-07-29T13:11:22;3.45;;;1.10;;
81242;SDS011;70716;50.074;14.496;2023-07-29T13:13:47;4.22;;;1.20;;
81242;SDS011;70716;50.074;14.496;2023-07-29T13:16:13;3.30;;;1.20;;
81242;SDS011;70716;50.074;14.496;2023-07-29T13:18:38;2.97;;;1.20;;
81242;SDS011;70716;50.074;14.496;2023-07-29T13:21:04;3.75;;;1.23;;
81242;SDS011;70716;50.074;14.496;2023-07-29T13:23:29;4.07;;;1.42;;
81242;SDS011;70716;50.074;14.496;2023-07-29T13:25:55;4.30;;;1.20;;
81242;SDS011;70716;50.074;14.496;2023-07-29T13:28:21;3.17;;;1.30;;
81242;SDS011;70716;50.074;14.496;2023-07-29T13:30:47;3.50;;;1.48;;
81242;SDS011;70716;50.074;14.496;2023-07-29T13:33:12;4.90;;;1.75;;
81242;SDS011;70716;50.074;14.496;2023-07-29T13:35:38;3.20;;;1.40;;
81242;SDS011;70716;50.074;14.496;2023-07-29T13:38:06;4.00;;;1.40;;
81242;SDS011;70716;50.074;14.496;2023-07-29T13:40:31;4.70;;;1.50;;
81242;SDS011;70716;50.074;14.496;2023-07-29T13:42:57;3.00;;;1.50;;
81242;SDS011;70716;50.074;14.496;2023-07-29T13:45:22;4.30;;;1.60;;
81242;SDS011;70716;50.074;14.496;2023-07-29T13:47:48;3.00;;;1.40;;
81242;SDS011;70716;50.074;14.496;2023-07-29T13:50:15;2.17;;;1.20;;
81242;SDS011;70716;50.074;14.496;2023-07-29T13:52:40;3.38;;;1.60;;
81242;SDS011;70716;50.074;14.496;2023-07-29T13:55:06;3.67;;;1.30;;
81242;SDS011;70716;50.074;14.496;2023-07-29T13:57:32;6.15;;;1.60;;
81242;SDS011;70716;50.074;14.496;2023-07-29T13:59:57;3.50;;;1.40;;
81242;SDS011;70716;50.074;14.496;2023-07-29T14:02:24;3.33;;;1.40;;
81242;SDS011;70716;50.074;14.496;2023-07-29T14:04:53;3.33;;;1.15;;
81242;SDS011;70716;50.074;14.496;2023-07-29T14:07:18;3.05;;;1.55;;
81242;SDS011;70716;50.074;14.496;2023-07-29T14:09:44;2.67;;;1.38;;
81242;SDS011;70716;50.074;14.496;2023-07-29T14:12:10;3.33;;;1.23;;
81242;SDS011;70716;50.074;14.496;2023-07-29T14:14:40;2.65;;;1.13;;
81242;SDS011;70716;50.074;14.496;2023-07-29T14:17:05;3.25;;;1.10;;
81242;SDS011;70716;50.074;14.496;2023-07-29T14:22:04;2.00;;;0.90;;
81242;SDS011;70716;50.074;14.496;2023-07-29T14:24:29;1.70;;;0.90;;
81242;SDS011;70716;50.074;14.496;2023-07-29T14:26:55;2.40;;;1.00;;
81242;SDS011;70716;50.074;14.496;2023-07-29T14:29:20;2.47;;;1.00;;
81242;SDS011;70716;50.074;14.496;2023-07-29T14:31:45;2.58;;;1.02;;
81242;SDS011;70716;50.074;14.496;2023-07-29T14:34:11;2.42;;;1.20;;
81242;SDS011;70716;50.074;14.496;2023-07-29T14:36:36;2.60;;;1.10;;
81242;SDS011;70716;50.074;14.496;2023-07-29T14:39:02;1.55;;;0.80;;
81242;SDS011;70716;50.074;14.496;2023-07-29T14:41:28;1.98;;;0.80;;
81242;SDS011;70716;50.074;14.496;2023-07-29T14:43:53;3.25;;;1.00;;
81242;SDS011;70716;50.074;14.496;2023-07-29T14:46:19;1.83;;;1.00;;
81242;SDS011;70716;50.074;14.496;2023-07-29T14:48:44;2.85;;;0.93;;
81242;SDS011;70716;50.074;14.496;2023-07-29T14:51:10;2.25;;;0.90;;
81242;SDS011;70716;50.074;14.496;2023-07-29T14:53:35;1.50;;;0.85;;
81242;SDS011;70716;50.074;14.496;2023-07-29T14:56:01;3.03;;;1.27;;
81242;SDS011;70716;50.074;14.496;2023-07-29T15:00:56;1.37;;;0.80;;
81242;SDS011;70716;50.074;14.496;2023-07-29T15:03:21;3.30;;;1.05;;
81242;SDS011;70716;50.074;14.496;2023-07-29T15:05:46;3.22;;;1.10;;
81242;SDS011;70716;50.074;14.496;2023-07-29T15:08:13;3.97;;;1.10;;
81242;SDS011;70716;50.074;14.496;2023-07-29T15:10:39;1.75;;;1.02;;